Time;durP1;ratioP1;P1;durP2;ratioP2;P2;SDS_P1;SDS_P2;PMS_P1;PMS_P2;Temp;Humidity;BMP_temperature;BMP_pressure;BME280_temperature;BME280_humidity;BME280_pressure;Samples;Min_cycle;Max_cycle;Signal;HPM_P1;HPM_P2
2020/12/08 00:02:04;;;;;;;13.95;8.73;;;3.20;99.90;;;;;;4980353;28;20096;-71
2020/12/08 00:04:31;;;;;;;13.15;8.00;;;3.20;99.90;;;;;;4982187;28;20045;-71
2020/12/08 00:06:56;;;;;;;12.50;7.95;;;3.30;99.90;;;;;;4981751;28;20045;-71
2020/12/08 00:09:22;;;;;;;13.75;8.27;;;3.30;99.90;;;;;;4979963;28;20859;-71
2020/12/08 00:11:48;;;;;;;12.15;7.28;;;3.30;99.90;;;;;;4982243;28;20046;-71
2020/12/08 00:14:14;;;;;;;14.50;7.45;;;3.30;99.90;;;;;;4979906;28;20744;-71
2020/12/08 00:16:40;;;;;;;12.63;8.23;;;3.20;99.90;;;;;;4980241;28;20038;-70
2020/12/08 00:19:10;;;;;;;12.18;7.07;;;3.30;99.90;;;;;;4981491;28;20037;-71
2020/12/08 00:21:37;;;;;;;14.63;8.00;;;3.20;99.90;;;;;;4981354;28;20035;-71
2020/12/08 00:24:03;;;;;;;12.07;7.47;;;3.30;99.90;;;;;;4981791;28;20046;-70
2020/12/08 00:26:29;;;;;;;13.57;7.90;;;3.30;99.90;;;;;;4981233;28;20426;-71
2020/12/08 00:28:55;;;;;;;13.05;7.32;;;3.30;99.90;;;;;;4981363;28;20039;-71
2020/12/08 00:31:27;;;;;;;11.77;7.50;;;3.30;99.90;;;;;;4981524;28;20104;-71
2020/12/08 00:33:53;;;;;;;10.40;6.88;;;3.30;99.90;;;;;;4981405;28;20049;-71
2020/12/08 00:36:20;;;;;;;11.68;7.22;;;3.30;99.90;;;;;;4981705;28;20141;-71
2020/12/08 00:38:47;;;;;;;11.77;7.65;;;3.30;99.90;;;;;;4980668;28;20045;-70
2020/12/08 00:41:21;;;;;;;12.55;7.32;;;3.30;99.90;;;;;;4979794;28;20536;-70
2020/12/08 00:43:47;;;;;;;13.15;7.78;;;3.30;99.90;;;;;;4981012;28;20029;-71
2020/12/08 00:46:14;;;;;;;11.88;7.15;;;3.40;99.90;;;;;;4981318;28;20038;-70
2020/12/08 00:48:41;;;;;;;13.48;8.05;;;3.40;99.90;;;;;;4980135;28;20042;-71
2020/12/08 00:51:07;;;;;;;12.20;7.38;;;3.40;99.90;;;;;;4978912;28;20042;-70
2020/12/08 00:53:33;;;;;;;14.95;7.30;;;3.40;99.90;;;;;;4979501;28;20042;-71
2020/12/08 00:56:01;;;;;;;12.45;6.75;;;3.40;99.90;;;;;;4979512;28;20564;-71
2020/12/08 00:58:27;;;;;;;11.95;7.43;;;3.40;99.90;;;;;;4979518;28;20038;-71
2020/12/08 01:00:53;;;;;;;14.98;7.57;;;3.50;99.90;;;;;;4978551;28;20077;-70
2020/12/08 01:03:19;;;;;;;19.52;7.57;;;3.50;99.90;;;;;;4980526;28;20073;-70
2020/12/08 01:05:46;;;;;;;13.68;7.22;;;3.40;99.90;;;;;;4979580;28;20058;-70
2020/12/08 01:08:11;;;;;;;15.27;8.82;;;3.40;99.90;;;;;;4980061;28;20238;-71
2020/12/08 01:10:39;;;;;;;13.82;8.85;;;3.40;99.90;;;;;;4978905;28;20120;-71
2020/12/08 01:13:05;;;;;;;13.55;8.70;;;3.30;99.90;;;;;;4979182;28;20612;-71
2020/12/08 01:15:31;;;;;;;14.13;8.57;;;3.30;99.90;;;;;;4978398;28;20862;-71
2020/12/08 01:17:58;;;;;;;14.95;7.80;;;3.30;99.90;;;;;;4972798;28;20129;-71
2020/12/08 01:20:26;;;;;;;14.68;7.68;;;3.40;99.90;;;;;;4978170;28;20038;-71
2020/12/08 01:22:54;;;;;;;10.82;7.10;;;3.30;99.90;;;;;;4978466;28;20699;-71
2020/12/08 01:25:21;;;;;;;12.25;7.57;;;3.40;99.90;;;;;;4980066;28;20058;-71
2020/12/08 01:27:47;;;;;;;13.05;7.97;;;3.40;99.90;;;;;;4980472;28;20800;-71
2020/12/08 01:30:14;;;;;;;11.77;7.07;;;3.30;99.90;;;;;;4979949;28;20030;-70
2020/12/08 01:32:45;;;;;;;11.45;7.40;;;3.30;99.90;;;;;;4981062;28;20122;-70
2020/12/08 01:35:11;;;;;;;15.32;7.60;;;3.40;99.90;;;;;;4979742;28;20034;-70
2020/12/08 01:37:37;;;;;;;15.02;8.25;;;3.50;99.90;;;;;;4979361;28;20037;-70
2020/12/08 01:40:06;;;;;;;14.35;7.75;;;3.60;99.90;;;;;;4979752;28;20041;-70
2020/12/08 01:42:33;;;;;;;10.98;6.88;;;3.70;99.90;;;;;;4980169;28;20038;-70
2020/12/08 01:44:59;;;;;;;12.48;7.90;;;3.70;99.90;;;;;;4979639;28;20057;-70
2020/12/08 01:47:26;;;;;;;12.52;7.35;;;3.70;99.90;;;;;;4980207;28;20090;-71
2020/12/08 01:49:52;;;;;;;13.82;8.05;;;3.40;99.90;;;;;;4979133;28;20023;-71
2020/12/08 01:52:18;;;;;;;13.85;7.75;;;3.40;99.90;;;;;;4979589;28;20042;-71
2020/12/08 01:54:51;;;;;;;13.85;7.95;;;3.40;99.90;;;;;;4979138;28;20030;-70
2020/12/08 01:57:19;;;;;;;11.93;7.35;;;3.30;99.90;;;;;;4979094;28;20038;-70
2020/12/08 01:59:46;;;;;;;11.95;7.60;;;3.30;99.90;;;;;;4978771;28;20108;-70
2020/12/08 02:02:24;;;;;;;17.67;8.38;;;3.30;99.90;;;;;;4979910;28;20108;-70
2020/12/08 02:04:50;;;;;;;13.32;8.48;;;3.30;99.90;;;;;;4978766;28;20030;-70
2020/12/08 02:07:16;;;;;;;15.65;8.27;;;3.30;99.90;;;;;;4961701;28;20807;-71
2020/12/08 02:09:42;;;;;;;11.70;7.47;;;3.30;99.90;;;;;;4979889;28;20113;-70
2020/12/08 02:12:09;;;;;;;15.75;7.78;;;3.40;99.90;;;;;;4978320;28;20827;-70
2020/12/08 02:14:38;;;;;;;18.40;9.10;;;3.40;99.90;;;;;;4979921;28;20096;-72
2020/12/08 02:17:04;;;;;;;13.68;7.85;;;3.30;99.90;;;;;;4980776;28;20054;-72
2020/12/08 02:19:31;;;;;;;14.57;8.13;;;3.40;99.90;;;;;;4980140;28;20041;-70
2020/12/08 02:21:58;;;;;;;16.67;9.07;;;3.40;99.90;;;;;;4980337;28;20132;-70
2020/12/08 02:24:24;;;;;;;14.70;8.25;;;3.30;99.90;;;;;;4979502;28;20054;-70
2020/12/08 02:26:50;;;;;;;15.30;8.60;;;3.30;99.90;;;;;;4979277;28;20142;-70
2020/12/08 02:29:18;;;;;;;14.90;8.02;;;3.40;99.90;;;;;;4979292;28;20510;-70
2020/12/08 02:31:44;;;;;;;13.20;8.18;;;3.40;99.90;;;;;;4979305;28;20121;-70
2020/12/08 02:34:14;;;;;;;12.70;8.32;;;3.40;99.90;;;;;;4980419;28;20841;-70
2020/12/08 02:36:40;;;;;;;17.55;8.93;;;3.40;99.90;;;;;;4981612;28;20038;-70
2020/12/08 02:39:06;;;;;;;14.63;8.05;;;3.40;99.90;;;;;;4979488;28;20403;-70
2020/12/08 02:41:33;;;;;;;11.77;7.50;;;3.40;99.90;;;;;;4963744;28;20069;-72
2020/12/08 02:44:01;;;;;;;15.18;7.80;;;3.40;99.90;;;;;;4978656;28;20054;-70
2020/12/08 02:46:27;;;;;;;14.98;8.93;;;3.40;99.90;;;;;;4979532;28;20058;-70
2020/12/08 02:48:56;;;;;;;14.07;8.02;;;3.40;99.90;;;;;;4978864;28;20037;-70
2020/12/08 02:51:26;;;;;;;14.40;8.25;;;3.50;99.90;;;;;;4982129;28;20044;-70
2020/12/08 02:53:56;;;;;;;16.38;8.88;;;3.50;99.90;;;;;;4982998;28;20034;-70
2020/12/08 02:56:25;;;;;;;16.67;8.85;;;3.50;99.90;;;;;;4984101;28;20851;-70
2020/12/08 02:58:53;;;;;;;17.50;10.00;;;3.50;99.90;;;;;;4983931;28;20045;-70
2020/12/08 03:01:19;;;;;;;18.65;10.27;;;3.60;99.90;;;;;;4982474;28;20038;-70
2020/12/08 03:03:47;;;;;;;20.02;11.32;;;3.70;99.90;;;;;;4982752;28;20030;-70
2020/12/08 03:06:14;;;;;;;16.52;10.35;;;3.70;99.90;;;;;;4982593;28;20026;-71
2020/12/08 03:08:40;;;;;;;23.95;12.32;;;3.80;99.90;;;;;;4966662;28;20053;-72
2020/12/08 03:11:05;;;;;;;27.38;13.30;;;3.80;99.90;;;;;;4976099;28;20054;-70
2020/12/08 03:13:32;;;;;;;28.48;13.50;;;3.80;99.90;;;;;;4982016;28;20522;-70
2020/12/08 03:15:58;;;;;;;28.13;13.20;;;3.90;99.90;;;;;;4966373;28;20041;-72
2020/12/08 03:18:24;;;;;;;32.20;14.07;;;3.90;99.90;;;;;;4982630;28;20031;-70
2020/12/08 03:20:51;;;;;;;29.75;13.77;;;3.90;99.90;;;;;;4982033;28;20405;-71
2020/12/08 03:23:17;;;;;;;25.20;13.98;;;4.00;99.90;;;;;;4982337;28;20034;-70
2020/12/08 03:25:43;;;;;;;22.17;12.30;;;4.00;99.90;;;;;;4982261;28;20041;-70
2020/12/08 03:28:12;;;;;;;25.05;12.07;;;4.00;99.90;;;;;;4966703;28;20018;-70
2020/12/08 03:30:41;;;;;;;23.35;11.07;;;4.00;99.90;;;;;;4981778;28;20030;-70
2020/12/08 03:33:08;;;;;;;19.65;10.90;;;4.00;99.90;;;;;;4982233;28;20685;-70
2020/12/08 03:35:34;;;;;;;25.60;12.63;;;4.00;99.90;;;;;;4981803;28;20494;-70
2020/12/08 03:38:00;;;;;;;25.08;13.55;;;4.00;99.90;;;;;;4981665;28;20041;-72
2020/12/08 03:40:25;;;;;;;31.50;14.43;;;4.00;99.90;;;;;;4965816;28;20038;-70
2020/12/08 03:42:53;;;;;;;25.25;13.68;;;4.10;99.90;;;;;;4981099;28;20042;-70
2020/12/08 03:45:22;;;;;;;25.88;14.07;;;4.10;99.90;;;;;;4981992;28;20114;-71
2020/12/08 03:47:56;;;;;;;25.67;13.98;;;4.10;99.90;;;;;;4982200;28;20037;-70
2020/12/08 03:50:26;;;;;;;31.55;15.20;;;4.10;99.90;;;;;;4980877;28;20041;-70
2020/12/08 03:52:56;;;;;;;28.50;15.80;;;4.20;99.90;;;;;;4981477;28;20037;-70
2020/12/08 03:55:22;;;;;;;33.42;16.98;;;4.20;99.90;;;;;;4981103;28;20038;-70
2020/12/08 03:57:48;;;;;;;32.92;17.25;;;4.20;99.90;;;;;;4981773;28;20089;-70
2020/12/08 04:00:17;;;;;;;36.83;18.20;;;4.30;99.90;;;;;;4980600;28;20108;-70
2020/12/08 04:02:48;;;;;;;40.08;20.85;;;4.30;99.90;;;;;;4981529;28;20035;-70
2020/12/08 04:05:19;;;;;;;39.70;19.35;;;4.40;99.90;;;;;;4980814;28;20141;-70
2020/12/08 04:07:47;;;;;;;43.17;21.25;;;4.40;99.90;;;;;;4980780;28;20066;-70
2020/12/08 04:10:13;;;;;;;45.33;21.90;;;4.40;99.90;;;;;;4982291;28;20037;-72
2020/12/08 04:12:40;;;;;;;51.30;22.52;;;4.40;99.90;;;;;;4980271;28;20672;-70
2020/12/08 04:15:08;;;;;;;46.00;22.52;;;4.50;99.90;;;;;;4964743;28;20041;-70
2020/12/08 04:17:33;;;;;;;50.33;23.58;;;4.60;99.90;;;;;;4980417;28;20030;-72
2020/12/08 04:20:01;;;;;;;53.67;25.35;;;4.70;99.90;;;;;;4978115;28;20038;-70
2020/12/08 04:22:27;;;;;;;52.55;26.00;;;4.70;99.90;;;;;;4980789;28;20034;-70
2020/12/08 04:24:52;;;;;;;56.17;26.52;;;4.80;99.90;;;;;;4963717;28;20037;-72
2020/12/08 04:27:18;;;;;;;56.20;26.58;;;4.90;99.90;;;;;;4980106;28;20777;-70
2020/12/08 04:29:52;;;;;;;58.28;27.48;;;4.90;99.90;;;;;;4980003;28;20387;-70
2020/12/08 04:32:24;;;;;;;59.05;27.83;;;5.00;99.90;;;;;;4980733;28;20549;-70
2020/12/08 04:34:50;;;;;;;56.75;26.25;;;5.00;99.90;;;;;;4979409;28;20034;-70
2020/12/08 04:37:15;;;;;;;55.35;27.27;;;5.00;99.90;;;;;;4981436;28;20034;-70
2020/12/08 04:39:41;;;;;;;57.40;27.73;;;5.00;99.90;;;;;;4981673;28;20497;-70
2020/12/08 04:42:07;;;;;;;61.50;29.20;;;5.00;99.90;;;;;;4981279;28;20034;-70
2020/12/08 04:44:33;;;;;;;58.20;28.05;;;5.10;99.90;;;;;;4981745;28;20142;-71
2020/12/08 04:46:59;;;;;;;63.90;28.98;;;5.10;99.90;;;;;;4982215;28;20238;-70
2020/12/08 04:49:26;;;;;;;64.07;29.73;;;5.10;99.90;;;;;;4981274;28;20042;-70
2020/12/08 04:51:52;;;;;;;57.50;27.73;;;5.20;99.90;;;;;;4981550;28;20128;-70
2020/12/08 04:54:18;;;;;;;59.20;27.73;;;5.20;99.90;;;;;;4981280;28;20518;-70
2020/12/08 04:56:44;;;;;;;63.17;28.30;;;5.20;99.90;;;;;;4980650;28;20034;-71
2020/12/08 04:59:23;;;;;;;59.72;28.92;;;5.20;99.90;;;;;;4981297;28;20030;-70
2020/12/08 05:01:49;;;;;;;63.58;28.73;;;5.20;99.90;;;;;;4981236;28;20035;-71
2020/12/08 05:04:23;;;;;;;63.97;29.15;;;5.30;99.90;;;;;;4980538;28;20041;-71
2020/12/08 05:07:09;;;;;;;64.43;29.80;;;5.30;99.90;;;;;;4980239;28;20037;-71
2020/12/08 05:09:45;;;;;;;64.78;29.15;;;5.30;99.90;;;;;;4980860;28;20030;-70
2020/12/08 05:12:11;;;;;;;61.63;30.10;;;5.30;99.90;;;;;;4978205;28;20185;-70
2020/12/08 05:14:43;;;;;;;63.05;30.15;;;5.20;99.90;;;;;;4977510;28;20490;-70
2020/12/08 05:17:08;;;;;;;70.20;30.77;;;5.30;99.90;;;;;;4978716;28;20046;-70
2020/12/08 05:19:34;;;;;;;63.13;29.63;;;5.20;99.90;;;;;;4980099;28;20038;-70
2020/12/08 05:22:00;;;;;;;67.38;30.50;;;5.20;99.90;;;;;;4980875;28;20723;-71
2020/12/08 05:24:26;;;;;;;64.20;30.20;;;5.20;99.90;;;;;;4980303;28;20058;-71
2020/12/08 05:26:59;;;;;;;67.20;29.92;;;5.20;99.90;;;;;;4980038;28;20050;-71
2020/12/08 05:29:26;;;;;;;62.97;28.90;;;5.20;99.90;;;;;;4979815;28;20106;-71
2020/12/08 05:31:52;;;;;;;65.78;31.00;;;5.20;99.90;;;;;;4980914;28;20034;-71
2020/12/08 05:34:19;;;;;;;66.63;30.67;;;5.20;99.90;;;;;;4972166;28;20411;-71
2020/12/08 05:36:53;;;;;;;63.80;30.77;;;5.20;99.90;;;;;;4979887;28;20364;-71
2020/12/08 05:39:23;;;;;;;71.70;30.17;;;5.20;99.90;;;;;;4978807;28;20799;-71
2020/12/08 05:41:51;;;;;;;68.25;29.25;;;5.20;99.90;;;;;;4979522;28;20133;-70
2020/12/08 05:44:23;;;;;;;66.90;29.90;;;5.20;99.90;;;;;;4978900;28;20128;-70
2020/12/08 05:46:50;;;;;;;63.28;30.75;;;5.20;99.90;;;;;;4979363;28;20042;-70
2020/12/08 05:49:16;;;;;;;64.65;30.30;;;5.20;99.90;;;;;;4980142;28;20030;-71
2020/12/08 05:51:50;;;;;;;62.85;29.63;;;5.20;99.90;;;;;;4981543;28;20085;-70
2020/12/08 05:54:20;;;;;;;66.30;29.05;;;5.20;99.90;;;;;;4981329;28;20093;-70
2020/12/08 05:56:50;;;;;;;68.85;29.80;;;5.20;99.90;;;;;;4981508;28;20046;-70
2020/12/08 05:59:28;;;;;;;78.05;35.17;;;5.20;99.90;;;;;;4981632;28;20038;-71
2020/12/08 06:01:55;;;;;;;84.05;39.38;;;5.30;99.90;;;;;;4980549;28;20061;-70
2020/12/08 06:04:21;;;;;;;67.85;31.10;;;5.20;99.90;;;;;;4978963;28;20038;-71
2020/12/08 06:06:48;;;;;;;67.78;30.85;;;5.20;99.90;;;;;;4965128;28;20050;-69
2020/12/08 06:09:30;;;;;;;69.43;32.20;;;5.30;99.90;;;;;;4975480;28;20062;-72
2020/12/08 06:11:56;;;;;;;66.45;29.73;;;5.20;99.90;;;;;;4977812;28;20034;-72
2020/12/08 06:14:37;;;;;;;69.13;31.48;;;5.20;99.90;;;;;;4975815;28;20046;-72
2020/12/08 06:17:08;;;;;;;73.45;32.38;;;5.20;99.90;;;;;;4975495;28;20050;-72
2020/12/08 06:19:34;;;;;;;67.03;30.55;;;5.20;99.90;;;;;;4979875;28;20073;-72
2020/12/08 06:22:10;;;;;;;66.15;30.65;;;5.10;99.90;;;;;;4976569;28;20681;-72
2020/12/08 06:24:36;;;;;;;66.57;31.55;;;5.20;99.90;;;;;;4986940;28;20061;-72
2020/12/08 06:27:01;;;;;;;66.20;31.48;;;5.10;99.90;;;;;;4982112;28;20158;-74
2020/12/08 06:29:27;;;;;;;71.28;32.15;;;5.10;99.90;;;;;;4976157;28;20033;-74
2020/12/08 06:31:53;;;;;;;80.38;36.92;;;5.10;99.90;;;;;;4983187;28;20521;-72
2020/12/08 06:34:28;;;;;;;72.43;32.70;;;5.10;99.90;;;;;;4982659;28;20752;-72
2020/12/08 06:36:54;;;;;;;65.00;31.10;;;5.10;99.90;;;;;;4975475;28;20034;-75
2020/12/08 06:39:21;;;;;;;64.15;30.60;;;5.10;99.90;;;;;;4976317;28;20478;-73
2020/12/08 06:41:47;;;;;;;71.10;31.80;;;5.10;99.90;;;;;;4982889;28;20047;-74
2020/12/08 06:44:21;;;;;;;69.22;31.40;;;5.10;99.90;;;;;;4984535;28;20042;-74
2020/12/08 06:46:51;;;;;;;74.68;33.00;;;5.10;99.90;;;;;;4983976;28;20662;-74
2020/12/08 06:49:17;;;;;;;64.30;29.88;;;5.10;99.90;;;;;;4984522;28;20034;-74
2020/12/08 06:51:42;;;;;;;72.65;31.58;;;5.00;99.90;;;;;;4985128;28;20038;-74
2020/12/08 06:54:15;;;;;;;70.88;31.10;;;5.00;99.90;;;;;;4975808;28;20069;-73
2020/12/08 06:56:41;;;;;;;70.07;32.40;;;5.00;99.90;;;;;;4984646;28;20030;-74
2020/12/08 06:59:06;;;;;;;70.45;30.98;;;5.00;99.90;;;;;;4975093;28;20038;-69
2020/12/08 07:01:32;;;;;;;75.68;31.75;;;5.00;99.90;;;;;;4984077;28;20043;-73
2020/12/08 07:03:59;;;;;;;66.32;31.23;;;5.00;99.90;;;;;;4983245;28;20030;-72
2020/12/08 07:06:28;;;;;;;72.00;32.72;;;4.90;99.90;;;;;;4976477;28;20056;-73
2020/12/08 07:08:54;;;;;;;69.32;32.53;;;4.90;99.90;;;;;;4983024;28;20034;-72
2020/12/08 07:11:22;;;;;;;66.72;30.75;;;4.90;99.90;;;;;;4963789;28;20039;-74
2020/12/08 07:14:01;;;;;;;67.63;31.15;;;4.80;99.90;;;;;;4979845;28;20035;-73
2020/12/08 07:16:28;;;;;;;69.82;32.42;;;4.80;99.90;;;;;;4975432;28;20047;-73
2020/12/08 07:18:55;;;;;;;70.22;31.77;;;4.80;99.90;;;;;;4973435;28;20062;-73
2020/12/08 07:21:21;;;;;;;76.47;31.88;;;4.80;99.90;;;;;;4974635;28;20848;-74
2020/12/08 07:23:51;;;;;;;74.45;33.67;;;4.80;99.90;;;;;;4982990;28;20036;-73
2020/12/08 07:26:21;;;;;;;69.47;31.95;;;4.80;99.90;;;;;;4979103;28;20132;-73
2020/12/08 07:28:47;;;;;;;70.55;30.83;;;4.80;99.90;;;;;;4985161;28;20105;-73
2020/12/08 07:31:20;;;;;;;72.15;30.95;;;4.80;99.90;;;;;;4983596;28;20038;-73
2020/12/08 07:33:47;;;;;;;65.32;30.23;;;4.80;99.90;;;;;;4981523;28;20030;-73
2020/12/08 07:36:21;;;;;;;68.82;32.30;;;4.90;99.90;;;;;;4966186;28;20490;-73
2020/12/08 07:38:50;;;;;;;68.77;32.10;;;4.90;99.90;;;;;;4983030;28;20034;-73
2020/12/08 07:41:17;;;;;;;64.35;30.58;;;4.90;99.90;;;;;;4970847;28;20039;-73
2020/12/08 07:43:43;;;;;;;69.13;30.80;;;5.00;99.90;;;;;;4978258;28;20089;-73
2020/12/08 07:46:09;;;;;;;70.00;30.40;;;4.90;99.90;;;;;;4980365;28;20026;-73
2020/12/08 07:48:34;;;;;;;61.00;29.98;;;5.00;99.90;;;;;;4975776;28;20030;-73
2020/12/08 07:51:00;;;;;;;66.82;30.67;;;5.00;99.90;;;;;;4982380;28;20122;-73
2020/12/08 07:53:37;;;;;;;68.22;31.58;;;5.00;99.90;;;;;;4981051;28;20046;-73
2020/12/08 07:56:03;;;;;;;67.53;30.52;;;4.90;99.90;;;;;;4975009;28;20039;-73
2020/12/08 07:58:30;;;;;;;67.90;32.22;;;5.00;99.90;;;;;;4961080;28;20081;-73
2020/12/08 08:00:57;;;;;;;65.88;30.75;;;4.90;99.90;;;;;;4977926;28;20066;-72
2020/12/08 08:06:46;;;;;;;68.85;30.85;;;5.00;99.90;;;;;;4971208;28;20027;-73
2020/12/08 08:09:12;;;;;;;66.43;31.27;;;5.00;99.90;;;;;;4962736;28;20141;-73
2020/12/08 08:11:38;;;;;;;68.57;31.50;;;5.10;99.90;;;;;;4972168;28;20038;-73
2020/12/08 08:14:04;;;;;;;66.15;30.23;;;5.20;99.90;;;;;;4962870;28;20442;-73
2020/12/08 08:16:30;;;;;;;67.70;32.20;;;5.20;99.90;;;;;;4980361;28;20052;-73
2020/12/08 08:18:57;;;;;;;76.15;30.38;;;5.20;99.90;;;;;;4981970;28;20482;-73
2020/12/08 08:21:23;;;;;;;69.13;31.73;;;5.30;99.90;;;;;;4981522;28;20479;-73
2020/12/08 08:23:49;;;;;;;67.93;30.80;;;5.30;99.90;;;;;;4974449;28;20038;-73
2020/12/08 08:26:15;;;;;;;65.07;30.90;;;5.30;99.90;;;;;;4978934;28;20019;-73
2020/12/08 08:28:41;;;;;;;66.85;30.80;;;5.40;99.90;;;;;;4976464;28;20085;-73
2020/12/08 08:31:07;;;;;;;66.47;30.80;;;5.40;99.90;;;;;;4979843;28;20114;-73
2020/12/08 08:33:33;;;;;;;64.88;30.20;;;5.50;99.90;;;;;;4981587;28;20132;-73
2020/12/08 08:35:59;;;;;;;62.28;29.75;;;5.60;99.90;;;;;;4981542;28;20117;-73
2020/12/08 08:38:28;;;;;;;63.35;29.13;;;5.60;99.90;;;;;;4981706;28;20468;-74
2020/12/08 08:40:55;;;;;;;67.07;30.83;;;5.70;99.90;;;;;;4972891;28;20062;-73
2020/12/08 08:43:21;;;;;;;88.53;34.42;;;5.70;99.90;;;;;;4981019;28;20126;-73
2020/12/08 08:45:47;;;;;;;67.40;30.10;;;5.70;99.90;;;;;;4976616;28;20861;-73
2020/12/08 08:48:14;;;;;;;67.97;31.55;;;5.70;99.90;;;;;;4980188;28;20792;-73
2020/12/08 08:50:40;;;;;;;64.20;29.00;;;5.70;99.90;;;;;;4979120;28;20045;-74
2020/12/08 08:53:06;;;;;;;68.50;31.48;;;5.70;99.90;;;;;;4978043;28;20050;-74
2020/12/08 08:55:32;;;;;;;67.95;31.20;;;5.60;99.90;;;;;;4980023;28;20034;-74
2020/12/08 08:57:58;;;;;;;70.53;30.50;;;5.60;99.90;;;;;;4979078;28;20588;-74
2020/12/08 09:00:24;;;;;;;65.10;30.67;;;5.70;99.90;;;;;;4972683;28;20690;-74
2020/12/08 09:02:50;;;;;;;63.25;31.05;;;5.70;99.90;;;;;;4976092;28;20035;-74
2020/12/08 09:05:16;;;;;;;65.82;30.02;;;5.80;99.90;;;;;;4979675;28;20037;-74
2020/12/08 09:07:42;;;;;;;60.95;29.25;;;5.80;99.90;;;;;;4974912;28;20089;-77
2020/12/08 09:10:08;;;;;;;71.35;32.30;;;5.70;99.90;;;;;;4978282;28;20034;-73
2020/12/08 09:12:33;;;;;;;67.03;30.73;;;5.80;99.90;;;;;;4978608;28;20848;-73
2020/12/08 09:15:00;;;;;;;66.07;33.40;;;5.70;99.90;;;;;;4972029;28;20034;-74
2020/12/08 09:17:26;;;;;;;58.60;29.73;;;5.70;99.90;;;;;;4980636;28;20038;-74
2020/12/08 09:19:55;;;;;;;66.38;31.02;;;5.80;99.90;;;;;;4980552;28;20041;-73
2020/12/08 09:22:22;;;;;;;69.28;31.45;;;5.70;99.90;;;;;;4975215;28;20057;-73
2020/12/08 09:24:48;;;;;;;69.70;30.85;;;5.80;99.90;;;;;;4975642;28;20108;-74
2020/12/08 09:27:15;;;;;;;60.22;29.38;;;5.80;99.90;;;;;;4978363;28;20034;-74
2020/12/08 09:29:41;;;;;;;64.75;29.58;;;5.90;99.90;;;;;;4981208;28;20026;-74
2020/12/08 09:32:07;;;;;;;66.80;30.50;;;5.90;99.90;;;;;;4979186;28;20030;-74
2020/12/08 09:34:33;;;;;;;66.10;30.65;;;5.90;99.90;;;;;;4980138;28;20034;-74
2020/12/08 09:37:00;;;;;;;65.80;30.65;;;6.00;99.90;;;;;;4981151;28;20036;-74
2020/12/08 09:39:26;;;;;;;67.93;31.27;;;6.00;99.90;;;;;;4979995;28;20845;-74
2020/12/08 09:41:52;;;;;;;67.80;31.45;;;5.90;99.90;;;;;;4978776;28;20034;-74
2020/12/08 09:44:18;;;;;;;60.42;28.95;;;5.90;99.90;;;;;;4964890;28;20027;-71
2020/12/08 09:46:44;;;;;;;66.53;30.92;;;5.90;99.90;;;;;;4980310;28;20859;-71
2020/12/08 09:49:11;;;;;;;64.18;30.48;;;5.90;99.90;;;;;;4975238;28;20070;-71
2020/12/08 09:51:37;;;;;;;65.75;30.73;;;6.10;99.90;;;;;;4973382;28;20038;-71
2020/12/08 09:54:04;;;;;;;60.88;29.42;;;6.20;99.90;;;;;;4980769;28;20064;-71
2020/12/08 09:56:30;;;;;;;64.90;29.58;;;6.20;99.90;;;;;;4980360;28;20023;-70
2020/12/08 09:58:56;;;;;;;64.93;30.13;;;6.30;99.90;;;;;;4972284;28;20840;-75
2020/12/08 10:01:30;;;;;;;66.97;30.33;;;6.30;99.90;;;;;;4980124;28;20034;-73
2020/12/08 10:03:56;;;;;;;58.83;27.73;;;6.40;99.90;;;;;;4980236;28;20039;-75
2020/12/08 10:06:22;;;;;;;61.65;27.80;;;6.40;99.90;;;;;;4984952;28;20030;-75
2020/12/08 10:08:49;;;;;;;68.07;30.88;;;6.40;99.90;;;;;;4976043;28;20040;-74
2020/12/08 10:11:15;;;;;;;59.97;28.65;;;6.40;99.90;;;;;;4983717;28;20084;-73
2020/12/08 10:13:42;;;;;;;58.28;29.10;;;6.40;99.90;;;;;;4984373;28;20031;-76
2020/12/08 10:16:09;;;;;;;59.47;30.00;;;6.50;99.90;;;;;;4983915;28;20035;-72
2020/12/08 10:18:35;;;;;;;64.63;29.83;;;6.70;99.90;;;;;;4984156;28;20092;-73
2020/12/08 10:21:02;;;;;;;65.18;29.85;;;6.70;99.90;;;;;;4981992;28;20565;-73
2020/12/08 10:23:28;;;;;;;62.50;28.88;;;6.80;99.90;;;;;;4985801;28;20478;-73
2020/12/08 10:25:54;;;;;;;59.88;29.33;;;6.80;99.90;;;;;;4985191;28;20192;-73
2020/12/08 10:28:21;;;;;;;63.88;28.88;;;6.60;99.90;;;;;;4984782;28;20440;-76
2020/12/08 10:30:48;;;;;;;66.88;30.73;;;6.70;99.90;;;;;;4980254;28;20451;-76
2020/12/08 10:33:15;;;;;;;62.92;30.85;;;6.50;99.90;;;;;;4984121;28;20345;-75
2020/12/08 10:35:41;;;;;;;62.42;28.17;;;6.50;99.90;;;;;;4981040;28;20038;-76
2020/12/08 10:38:07;;;;;;;59.30;28.15;;;6.60;99.90;;;;;;4982621;28;20038;-76
2020/12/08 10:40:33;;;;;;;65.25;28.52;;;6.80;99.90;;;;;;4979211;28;20031;-76
2020/12/08 10:42:59;;;;;;;58.10;29.45;;;6.70;99.90;;;;;;4974759;28;20046;-76
2020/12/08 10:45:25;;;;;;;59.42;28.98;;;6.80;99.90;;;;;;4984167;28;20026;-76
2020/12/08 10:47:50;;;;;;;57.30;27.02;;;6.90;99.90;;;;;;4970582;28;20537;-73
2020/12/08 10:50:16;;;;;;;55.40;26.58;;;6.80;99.90;;;;;;4974273;28;20041;-75
2020/12/08 10:52:42;;;;;;;54.38;27.58;;;6.90;99.90;;;;;;4976710;28;20031;-76
2020/12/08 10:55:08;;;;;;;58.85;28.13;;;6.90;99.90;;;;;;4979536;28;20691;-72
2020/12/08 10:57:34;;;;;;;52.05;26.58;;;7.00;99.90;;;;;;4981765;28;20045;-74
2020/12/08 11:00:00;;;;;;;56.63;25.98;;;7.20;99.90;;;;;;4983718;28;20031;-73
2020/12/08 11:02:25;;;;;;;52.88;25.77;;;7.30;99.90;;;;;;4983894;28;20062;-73
2020/12/08 11:04:51;;;;;;;60.70;28.50;;;7.60;99.90;;;;;;4981111;28;20034;-73
2020/12/08 11:07:17;;;;;;;56.13;25.88;;;7.60;99.90;;;;;;4984238;28;20074;-73
2020/12/08 11:09:43;;;;;;;53.58;25.85;;;7.80;99.90;;;;;;4976111;28;20710;-73
2020/12/08 11:12:10;;;;;;;53.22;26.52;;;7.60;99.90;;;;;;4982629;28;20034;-73
2020/12/08 11:14:36;;;;;;;64.55;29.77;;;7.70;99.90;;;;;;4973886;28;20101;-73
2020/12/08 11:17:02;;;;;;;62.13;29.80;;;7.60;99.90;;;;;;4985219;28;20039;-80
2020/12/08 11:19:28;;;;;;;52.88;25.30;;;7.70;99.90;;;;;;4982248;28;20096;-75
2020/12/08 11:21:54;;;;;;;57.15;26.40;;;7.80;99.90;;;;;;4981444;28;20502;-76
2020/12/08 11:24:19;;;;;;;52.45;25.85;;;7.80;99.90;;;;;;4984995;28;20482;-77
2020/12/08 11:26:45;;;;;;;54.90;25.48;;;7.70;99.90;;;;;;4977683;28;20105;-76
2020/12/08 11:29:12;;;;;;;60.50;26.27;;;7.70;99.90;;;;;;4989475;28;20113;-74
2020/12/08 11:31:38;;;;;;;47.60;24.75;;;7.80;99.90;;;;;;4983690;28;20045;-74
2020/12/08 11:34:04;;;;;;;47.90;24.85;;;8.00;99.90;;;;;;4983570;28;20042;-75
2020/12/08 11:36:31;;;;;;;50.95;24.65;;;8.10;99.90;;;;;;4984861;28;20031;-74
2020/12/08 11:38:57;;;;;;;46.55;23.95;;;8.20;99.90;;;;;;4982468;28;20046;-74
2020/12/08 11:41:22;;;;;;;51.15;25.05;;;8.40;99.90;;;;;;4976340;28;20118;-73
2020/12/08 11:43:48;;;;;;;49.58;23.88;;;8.20;99.90;;;;;;4975875;28;20027;-75
2020/12/08 11:46:14;;;;;;;54.38;25.40;;;8.40;99.90;;;;;;4983393;28;20628;-75
2020/12/08 11:48:41;;;;;;;52.70;23.58;;;8.40;99.90;;;;;;4982081;28;20034;-74
2020/12/08 11:51:07;;;;;;;47.90;24.75;;;8.60;99.90;;;;;;4980232;28;20452;-74
2020/12/08 11:53:33;;;;;;;50.38;23.73;;;8.30;99.90;;;;;;4983789;28;20038;-74
2020/12/08 11:55:59;;;;;;;49.78;24.40;;;8.40;99.90;;;;;;4975425;28;20031;-72
2020/12/08 11:58:24;;;;;;;51.80;24.63;;;8.30;99.90;;;;;;4981897;28;20124;-77
2020/12/08 12:00:50;;;;;;;46.75;24.40;;;8.50;99.90;;;;;;4983113;28;20038;-78
2020/12/08 12:03:16;;;;;;;48.50;23.55;;;8.70;99.90;;;;;;4979452;28;20042;-75
2020/12/08 12:05:42;;;;;;;50.67;23.35;;;8.80;99.90;;;;;;4979227;28;20018;-75
2020/12/08 12:08:08;;;;;;;46.22;23.60;;;8.80;99.90;;;;;;4975984;28;20494;-75
2020/12/08 12:10:34;;;;;;;46.58;24.38;;;8.70;99.90;;;;;;4982875;28;20035;-75
2020/12/08 12:13:00;;;;;;;47.53;23.25;;;8.80;99.90;;;;;;4966391;28;20038;-76
2020/12/08 12:15:25;;;;;;;51.45;23.77;;;8.80;99.90;;;;;;4983275;28;20069;-75
2020/12/08 12:17:51;;;;;;;53.55;23.42;;;8.60;99.90;;;;;;4982869;28;20147;-75
2020/12/08 12:20:17;;;;;;;52.78;24.65;;;8.90;99.90;;;;;;4983535;28;20030;-74
2020/12/08 12:22:43;;;;;;;47.45;23.75;;;8.90;99.90;;;;;;4973301;28;20081;-75
2020/12/08 12:25:09;;;;;;;46.42;23.67;;;8.70;99.90;;;;;;4973135;28;20038;-74
2020/12/08 12:27:35;;;;;;;47.90;23.88;;;8.60;99.90;;;;;;4972901;28;20062;-74
2020/12/08 12:30:01;;;;;;;47.80;23.98;;;8.50;99.90;;;;;;4978493;28;20442;-74
2020/12/08 12:32:27;;;;;;;48.95;24.05;;;8.50;99.90;;;;;;4982267;28;20034;-74
2020/12/08 12:34:53;;;;;;;50.38;24.58;;;8.50;99.90;;;;;;4982509;28;20478;-75
2020/12/08 12:37:19;;;;;;;55.47;26.35;;;8.50;99.90;;;;;;4974847;28;20042;-73
2020/12/08 12:39:45;;;;;;;55.95;24.63;;;8.60;99.90;;;;;;4980528;28;20030;-73
2020/12/08 12:42:11;;;;;;;50.90;24.10;;;8.30;99.90;;;;;;4978412;28;20053;-72